GMMH

Details ICAO GMMH (VIL)
Name DAKHLA
Region Morocco
Timezone Africa/El_Aaiun (UTC+0.0)
Plans Departing 32
Arriving 40
Stats Elevation 36 ft / 11 m (AMSL)
Location 23.718294° -15.931993°
Runways 1
Magnetic Variation 5.267° W
Sunrise 2017-12-13 07:38:41 UTC / 2017-12-13 07:38:41 Local
Sunset 2017-12-13 18:20:03 UTC / 2017-12-13 18:20:03 Local
Advertisement - Login to hide

Runways

ID Width Length Bearing (true) Bearing (mag) Surface Threshold Offset Overrun Length
03 148 ft / 45 m 9,886 ft / 3,013 m 22.66° 27.93° Asphalt 0 ft / 0 m 323 ft / 98 m
21 148 ft / 45 m 9,886 ft / 3,013 m 202.67° 207.94° Asphalt 0 ft / 0 m 377 ft / 115 m

Map

Weather


0- 5 10 15 20 25 30 35+ Temperature / ° C

Clouds and Precipitation
Forecast for 2017-12-13 12:00 UTC. Updated 30 minutes ago

Ground ~20,000 ft ~40,000 ft Winds

METAR

GMMH 130900Z 07016KT 9999 SCT033 17/11 Q1020 NOSIG

TAF

TAF GMMH 130500Z 1306/1412 04012KT 8000 SCT010 BKN030 BECMG 1308/1310 36022KT BECMG 1312/1314 NSC BECMG 1404/1406 02012KT

Frequencies

Tower 118.10 MHz TWR
Warning: Do not use this data for real-world aviation or navigation. No guarantee of current accuracy is given.